Time;durP1;ratioP1;P1;durP2;ratioP2;P2;SDS_P1;SDS_P2;PMS_P1;PMS_P2;Temp;Humidity;BMP_temperature;BMP_pressure;BME280_temperature;BME280_humidity;BME280_pressure;Samples;Min_cycle;Max_cycle;Signal;HPM_P1;HPM_P2
2023/01/10 00:01:10;;;;;;;17.30;8.60;;;;;;;5.58;100.00;97708.77;221302;1280;24400;-72
2023/01/10 00:06:12;;;;;;;15.20;8.10;;;;;;;5.56;100.00;97711.01;221335;1271;24238;-73
2023/01/10 00:16:39;;;;;;;15.60;8.90;;;;;;;5.49;100.00;97721.70;221173;1275;25415;-72
2023/01/10 00:21:47;;;;;;;20.30;11.00;;;;;;;5.45;100.00;97723.75;221486;1257;23969;-73
2023/01/10 00:26:51;;;;;;;16.20;9.80;;;;;;;5.45;100.00;97730.72;221404;1280;25389;-73
2023/01/10 00:31:56;;;;;;;23.20;11.30;;;;;;;5.44;100.00;97737.11;221303;1280;22702;-72
2023/01/10 00:36:58;;;;;;;15.80;9.40;;;;;;;5.42;100.00;97743.13;221277;1257;23904;-72
2023/01/10 00:47:47;;;;;;;17.20;10.20;;;;;;;5.30;100.00;97750.13;221383;1280;22966;-73
2023/01/10 00:52:49;;;;;;;16.50;10.00;;;;;;;5.25;100.00;97758.56;221466;1277;22647;-73
2023/01/10 00:58:03;;;;;;;;;;;;;;;;;;;;;
2023/01/10 01:03:42;;;;;;;16.70;9.40;;;;;;;5.14;100.00;97770.34;221553;1280;25522;-73
2023/01/10 01:08:47;;;;;;;18.60;10.50;;;;;;;5.12;100.00;97779.00;221183;1275;22543;-73
2023/01/10 01:14:00;;;;;;;17.40;9.80;;;;;;;5.10;100.00;97782.67;221405;1280;22537;-73
2023/01/10 01:19:14;;;;;;;15.40;8.20;;;;;;;5.09;100.00;97786.25;221300;1277;23591;-74
2023/01/10 01:24:43;;;;;;;15.90;8.70;;;;;;;5.08;100.00;97784.83;221118;1279;22557;-73
2023/01/10 01:29:56;;;;;;;18.10;10.60;;;;;;;5.07;100.00;97787.00;221286;1280;25301;-73
2023/01/10 01:35:05;;;;;;;19.00;10.60;;;;;;;5.06;100.00;97792.42;221312;1280;22644;-73
2023/01/10 01:40:33;;;;;;;22.10;11.00;;;;;;;5.04;100.00;97799.34;221422;1280;23317;-72
2023/01/10 01:46:03;;;;;;;24.90;13.30;;;;;;;5.03;100.00;97798.93;221269;1280;22661;-74
2023/01/10 01:51:29;;;;;;;18.60;11.00;;;;;;;5.00;100.00;97799.68;221418;1275;22575;-73
2023/01/10 01:56:41;;;;;;;21.60;12.80;;;;;;;4.99;100.00;97791.94;221270;1280;23089;-74
2023/01/10 02:01:51;;;;;;;24.10;13.40;;;;;;;5.01;100.00;97792.04;221377;1279;22547;-73
2023/01/10 02:07:05;;;;;;;26.30;13.80;;;;;;;5.03;100.00;97794.20;221500;1280;22804;-73
2023/01/10 02:12:14;;;;;;;23.40;13.00;;;;;;;5.03;100.00;97803.76;221264;1279;24186;-73
2023/01/10 02:17:16;;;;;;;21.20;11.90;;;;;;;5.04;100.00;97806.67;221279;1279;25463;-73
2023/01/10 02:22:46;;;;;;;22.20;12.70;;;;;;;5.04;100.00;97814.52;221472;1280;23968;-73
2023/01/10 02:28:29;;;;;;;25.70;12.60;;;;;;;5.02;100.00;97818.57;220857;1279;24266;-73
2023/01/10 02:34:06;;;;;;;25.40;12.90;;;;;;;5.02;100.00;97825.05;220836;1283;22570;-73
2023/01/10 02:39:21;;;;;;;28.40;14.40;;;;;;;4.99;100.00;97829.27;220695;1263;22679;-73
2023/01/10 02:44:57;;;;;;;26.70;14.30;;;;;;;4.98;100.00;97833.58;220853;1283;24257;-73
2023/01/10 02:50:27;;;;;;;27.00;15.40;;;;;;;4.97;100.00;97840.40;220909;1280;22880;-73
2023/01/10 02:55:59;;;;;;;33.50;16.70;;;;;;;4.95;100.00;97852.37;221431;1280;25466;-73
2023/01/10 03:01:04;;;;;;;33.70;16.40;;;;;;;4.96;100.00;97856.30;221387;1280;23661;-73
2023/01/10 03:06:15;;;;;;;31.10;15.80;;;;;;;4.95;100.00;97867.61;221284;1280;24302;-73
2023/01/10 03:11:38;;;;;;;32.30;16.00;;;;;;;4.92;100.00;97866.55;221466;1272;22527;-74
2023/01/10 03:17:01;;;;;;;28.70;15.90;;;;;;;4.90;100.00;97873.63;221136;1278;22537;-74
2023/01/10 03:22:09;;;;;;;29.50;15.40;;;;;;;4.92;100.00;97888.15;221439;1276;25448;-74
2023/01/10 03:27:36;;;;;;;32.10;15.90;;;;;;;4.91;100.00;97905.68;221427;1277;25428;-74
2023/01/10 03:32:40;;;;;;;36.30;16.60;;;;;;;4.90;100.00;97911.96;221388;1276;24145;-73
2023/01/10 03:38:04;;;;;;;32.70;16.60;;;;;;;4.88;100.00;97924.44;221285;1278;22574;-73
2023/01/10 03:48:40;;;;;;;35.20;18.10;;;;;;;4.83;100.00;97936.34;221234;1280;24238;-74
2023/01/10 03:53:45;;;;;;;36.10;18.90;;;;;;;4.82;100.00;97945.79;221350;1280;22849;-73
2023/01/10 03:58:47;;;;;;;29.80;16.40;;;;;;;4.79;100.00;97957.80;221268;1280;22569;-74
2023/01/10 04:03:49;;;;;;;32.70;17.60;;;;;;;4.76;100.00;97969.75;221275;1275;24610;-74
2023/01/10 04:08:51;;;;;;;30.30;15.00;;;;;;;4.72;100.00;97977.39;221235;1277;22629;-73
2023/01/10 04:13:53;;;;;;;29.80;15.50;;;;;;;4.66;100.00;97984.41;221165;1278;23290;-73
2023/01/10 04:18:59;;;;;;;30.70;15.20;;;;;;;4.60;100.00;97990.27;221375;1275;24397;-73
2023/01/10 04:24:01;;;;;;;41.60;17.50;;;;;;;4.56;100.00;97990.44;221171;1263;22580;-74
2023/01/10 04:29:04;;;;;;;36.60;18.10;;;;;;;4.53;100.00;97995.89;221208;1278;23775;-74
2023/01/10 04:34:09;;;;;;;33.40;16.70;;;;;;;4.50;100.00;98004.86;221432;1275;22553;-75
2023/01/10 04:39:12;;;;;;;39.10;17.30;;;;;;;4.47;100.00;98005.45;221378;1275;25295;-75
2023/01/10 04:44:14;;;;;;;42.30;18.00;;;;;;;4.45;100.00;98006.46;221323;1276;26460;-76
2023/01/10 04:49:21;;;;;;;41.00;18.30;;;;;;;4.42;100.00;98014.58;221444;1275;25483;-76
2023/01/10 04:54:27;;;;;;;38.80;17.50;;;;;;;4.37;100.00;98027.20;221385;1280;22558;-75
2023/01/10 04:59:35;;;;;;;36.00;15.10;;;;;;;4.34;100.00;98031.45;221379;1277;22550;-75
2023/01/10 05:04:58;;;;;;;37.40;18.30;;;;;;;4.32;100.00;98044.60;221538;1275;23761;-76
2023/01/10 05:10:01;;;;;;;38.00;16.30;;;;;;;4.27;100.00;98055.20;221543;1275;22571;-76
2023/01/10 05:15:05;;;;;;;34.50;15.40;;;;;;;4.25;100.00;98060.20;221440;1277;22547;-77
2023/01/10 05:20:08;;;;;;;36.60;15.40;;;;;;;4.23;100.00;98063.64;221208;1280;22923;-78
2023/01/10 05:25:11;;;;;;;33.10;13.40;;;;;;;4.20;100.00;98073.77;221660;1275;22525;-77
2023/01/10 05:30:13;;;;;;;33.10;14.70;;;;;;;4.18;100.00;98083.73;221420;1276;22547;-77
2023/01/10 05:35:16;;;;;;;34.40;14.70;;;;;;;4.18;100.00;98089.88;221340;1280;22673;-77
2023/01/10 05:40:19;;;;;;;38.40;15.60;;;;;;;4.19;100.00;98100.20;221461;1279;22744;-76
2023/01/10 05:45:22;;;;;;;36.10;15.30;;;;;;;4.21;100.00;98107.64;221337;1278;23791;-78
2023/01/10 05:50:27;;;;;;;38.40;15.90;;;;;;;4.20;100.00;98112.73;221423;1280;25304;-77
2023/01/10 05:55:33;;;;;;;39.30;16.30;;;;;;;4.19;100.00;98122.27;221232;1275;23006;-77
2023/01/10 06:00:38;;;;;;;40.40;16.80;;;;;;;4.17;100.00;98130.02;221414;1275;22659;-77
2023/01/10 06:05:43;;;;;;;36.60;16.20;;;;;;;4.18;100.00;98133.93;221598;1275;22532;-77
2023/01/10 06:10:55;;;;;;;43.20;16.60;;;;;;;4.19;100.00;98140.61;221595;1280;22553;-77
2023/01/10 06:15:58;;;;;;;41.20;16.80;;;;;;;4.21;100.00;98153.77;221421;1278;23271;-78
2023/01/10 06:21:03;;;;;;;41.20;15.40;;;;;;;4.21;100.00;98157.75;221376;1280;22552;-77
2023/01/10 06:26:06;;;;;;;40.40;15.50;;;;;;;4.22;100.00;98167.35;221358;1280;22578;-77
2023/01/10 06:31:09;;;;;;;40.50;16.20;;;;;;;4.19;100.00;98175.20;221548;1279;22534;-76
2023/01/10 06:36:14;;;;;;;44.40;18.10;;;;;;;4.18;100.00;98184.09;221383;1275;25419;-77
2023/01/10 06:41:17;;;;;;;49.80;19.80;;;;;;;4.19;100.00;98189.98;221514;1260;24276;-76
2023/01/10 06:46:20;;;;;;;43.50;18.70;;;;;;;4.21;100.00;98202.46;221936;1275;24258;-77
2023/01/10 06:51:22;;;;;;;58.00;20.40;;;;;;;4.24;100.00;98207.12;221781;1266;22536;-76
2023/01/10 06:56:35;;;;;;;57.70;22.00;;;;;;;4.26;100.00;98216.89;221933;1265;138512;-77
2023/01/10 07:01:37;;;;;;;54.20;20.70;;;;;;;4.29;100.00;98223.95;221796;1259;22557;-76
2023/01/10 07:06:40;;;;;;;50.80;20.10;;;;;;;4.30;100.00;98233.40;221831;1272;138103;-76
2023/01/10 07:12:05;;;;;;;44.90;18.80;;;;;;;4.31;100.00;98234.66;221138;1269;138355;-76
2023/01/10 07:17:29;;;;;;;43.00;17.60;;;;;;;4.27;100.00;98242.09;221061;1262;139900;-77
2023/01/10 07:22:40;;;;;;;50.70;19.90;;;;;;;4.24;100.00;98252.31;221505;1274;138779;-78
2023/01/10 07:27:54;;;;;;;52.80;18.20;;;;;;;4.23;100.00;98256.54;221372;1272;138915;-77
2023/01/10 07:38:31;;;;;;;39.60;16.40;;;;;;;4.22;100.00;98263.27;221066;1265;138424;-77
2023/01/10 07:43:36;;;;;;;45.90;18.30;;;;;;;4.19;100.00;98274.19;221235;1271;25366;-78
2023/01/10 07:53:37;;;;;;;49.80;19.70;;;;;;;4.18;100.00;98272.65;215489;1305;545030;-77
2023/01/10 07:58:40;;;;;;;48.80;20.40;;;;;;;4.13;100.00;98276.70;220046;1285;138485;-77
2023/01/10 08:03:47;;;;;;;47.90;20.80;;;;;;;4.15;100.00;98287.42;219853;1284;180550;-78
2023/01/10 08:08:50;;;;;;;51.00;20.20;;;;;;;4.16;100.00;98289.44;221103;1268;138451;-78
2023/01/10 08:13:52;;;;;;;48.10;20.60;;;;;;;4.17;100.00;98296.33;221566;1275;24382;-78
2023/01/10 08:18:56;;;;;;;53.90;22.50;;;;;;;4.19;100.00;98300.70;221499;1260;137519;-79
2023/01/10 08:23:59;;;;;;;49.20;20.60;;;;;;;4.21;100.00;98313.69;221465;1274;137813;-79
2023/01/10 08:29:01;;;;;;;57.90;22.90;;;;;;;4.22;100.00;98319.86;221562;1275;137975;-79
2023/01/10 08:34:04;;;;;;;55.70;23.00;;;;;;;4.25;100.00;98323.73;221399;1275;138465;-79
2023/01/10 08:39:07;;;;;;;53.10;20.80;;;;;;;4.26;100.00;98330.38;221432;1275;137915;-79
2023/01/10 08:44:12;;;;;;;47.30;19.70;;;;;;;4.26;100.00;98329.47;221349;1262;138335;-79
2023/01/10 08:49:17;;;;;;;54.70;21.40;;;;;;;4.26;100.00;98337.26;221654;1275;27470;-78
2023/01/10 08:54:25;;;;;;;50.80;19.70;;;;;;;4.23;100.00;98345.10;221639;1273;137745;-78
2023/01/10 08:59:30;;;;;;;53.30;21.40;;;;;;;4.22;100.00;98362.86;221673;1278;138133;-79
2023/01/10 09:04:40;;;;;;;43.60;17.50;;;;;;;4.21;100.00;98380.14;221603;1262;138118;-77
2023/01/10 09:09:43;;;;;;;46.10;20.00;;;;;;;4.22;100.00;98390.38;221300;1273;138078;-78
2023/01/10 09:14:48;;;;;;;48.50;19.70;;;;;;;4.25;100.00;98404.40;221443;1273;138096;-78
2023/01/10 09:19:51;;;;;;;53.30;22.40;;;;;;;4.26;100.00;98408.77;221814;1269;23901;-80
2023/01/10 09:24:54;;;;;;;46.10;18.90;;;;;;;4.30;100.00;98416.05;221489;1275;137710;-80
2023/01/10 09:30:03;;;;;;;48.20;20.00;;;;;;;4.28;100.00;98425.42;221593;1274;138011;-81
2023/01/10 09:35:14;;;;;;;36.80;17.40;;;;;;;4.30;100.00;98428.14;222739;1278;138193;-81
2023/01/10 09:40:50;;;;;;;45.30;19.20;;;;;;;4.34;100.00;98439.84;222544;1274;138175;-82
2023/01/10 09:46:09;;;;;;;42.80;19.40;;;;;;;4.37;100.00;98446.48;221983;1266;138151;-81
2023/01/10 09:51:34;;;;;;;41.50;19.30;;;;;;;4.35;100.00;98443.35;221498;1281;138078;-81
2023/01/10 09:56:55;;;;;;;41.60;18.70;;;;;;;4.34;100.00;98454.73;221412;1281;138087;-82
2023/01/10 10:02:29;;;;;;;46.70;19.40;;;;;;;4.30;100.00;98460.34;222624;1281;140056;-82
2023/01/10 10:07:34;;;;;;;35.90;15.30;;;;;;;4.30;100.00;98459.48;222929;1269;24301;-82
2023/01/10 10:12:59;;;;;;;40.40;16.40;;;;;;;4.31;100.00;98465.69;221864;1267;138060;-84
2023/01/10 10:19:27;;;;;;;34.50;16.30;;;;;;;4.33;100.00;98470.42;222732;1273;153791;-83
2023/01/10 10:24:46;;;;;;;37.00;16.50;;;;;;;4.33;100.00;98475.52;222786;1266;138246;-82
2023/01/10 10:30:27;;;;;;;38.50;16.60;;;;;;;4.36;100.00;98476.69;223305;1273;138045;-83
2023/01/10 10:36:29;;;;;;;27.30;14.30;;;;;;;4.35;100.00;98486.77;222975;1275;138128;-83
2023/01/10 10:42:00;;;;;;;33.90;14.60;;;;;;;4.35;100.00;98494.78;223240;1272;139414;-83
2023/01/10 10:47:23;;;;;;;29.10;13.80;;;;;;;4.35;100.00;98498.55;223514;1259;138638;-83
2023/01/10 10:52:44;;;;;;;29.30;12.50;;;;;;;4.36;100.00;98498.51;223042;1272;138465;-84
2023/01/10 10:57:48;;;;;;;25.60;12.40;;;;;;;4.37;100.00;98498.67;223404;1272;138244;-82
2023/01/10 11:03:41;;;;;;;;;;;;;;;4.35;100.00;98497.70;223446;1259;138715;-84
2023/01/10 11:08:55;;;;;;;24.70;12.80;;;;;;;4.35;100.00;98505.87;223451;1273;125024;-82
2023/01/10 11:14:11;;;;;;;23.10;12.10;;;;;;;4.37;100.00;98519.89;224062;1271;138261;-83
2023/01/10 11:19:36;;;;;;;25.50;11.90;;;;;;;4.39;100.00;98523.14;223681;1272;22601;-83
2023/01/10 11:24:56;;;;;;;22.30;11.00;;;;;;;4.43;100.00;98530.39;223376;1275;138104;-84
2023/01/10 11:30:26;;;;;;;22.20;10.70;;;;;;;4.44;100.00;98536.70;222514;1272;138468;-83
2023/01/10 11:35:56;;;;;;;19.80;10.40;;;;;;;4.47;100.00;98538.00;222418;1278;138613;-84
2023/01/10 11:41:03;;;;;;;22.50;10.60;;;;;;;4.48;100.00;98551.36;223818;1272;138299;-84
2023/01/10 11:46:24;;;;;;;21.40;9.00;;;;;;;4.47;100.00;98551.95;223569;1277;138364;-84
2023/01/10 11:51:47;;;;;;;17.30;8.60;;;;;;;4.43;100.00;98552.02;223544;1268;138231;-84
2023/01/10 11:57:13;;;;;;;23.90;11.00;;;;;;;4.44;100.00;98562.86;223785;1272;138539;-83
2023/01/10 12:02:46;;;;;;;23.50;10.30;;;;;;;4.43;100.00;98570.59;223788;1272;138323;-83
2023/01/10 12:08:35;;;;;;;;;;;;;;;;;;;;;
2023/01/10 12:14:01;;;;;;;23.20;11.50;;;;;;;4.42;100.00;98582.68;223639;1275;22504;-85
2023/01/10 12:19:18;;;;;;;28.80;11.30;;;;;;;4.42;100.00;98590.86;223693;1272;22607;-84
2023/01/10 12:24:46;;;;;;;25.60;11.00;;;;;;;4.44;100.00;98596.66;223538;1275;138730;-84
2023/01/10 12:30:20;;;;;;;50.70;16.30;;;;;;;4.48;100.00;98602.73;223406;1273;138452;-87
2023/01/10 12:35:51;;;;;;;52.70;14.60;;;;;;;4.53;100.00;98603.46;223867;1272;137967;-83
2023/01/10 12:41:17;;;;;;;27.80;11.70;;;;;;;4.58;100.00;98606.06;223373;1272;138991;-87
2023/01/10 12:47:08;;;;;;;42.00;13.40;;;;;;;4.61;100.00;98610.27;223990;1258;138984;-83
2023/01/10 12:53:12;;;;;;;32.60;13.20;;;;;;;4.63;100.00;98618.94;224028;1271;138251;-87
2023/01/10 12:59:26;;;;;;;33.90;14.20;;;;;;;4.61;100.00;98627.26;223522;1272;137380;-87
2023/01/10 13:04:57;;;;;;;28.00;12.30;;;;;;;4.60;100.00;98638.77;222863;1276;138400;-87
2023/01/10 13:10:06;;;;;;;26.60;13.40;;;;;;;4.58;100.00;98643.84;222982;1275;138567;-86
2023/01/10 13:15:40;;;;;;;29.80;12.50;;;;;;;4.58;100.00;98648.13;222274;1277;138426;-85
2023/01/10 13:21:07;;;;;;;29.90;13.40;;;;;;;4.58;100.00;98655.61;222303;1278;142150;-85
2023/01/10 13:26:14;;;;;;;45.90;15.50;;;;;;;4.54;100.00;98655.05;222373;1283;138397;-85
2023/01/10 13:31:41;;;;;;;42.50;13.90;;;;;;;4.54;100.00;98662.86;222711;1277;23859;-84
2023/01/10 13:36:57;;;;;;;38.70;13.30;;;;;;;4.53;100.00;98672.75;222399;1259;138160;-83
2023/01/10 13:48:25;;;;;;;26.20;12.50;;;;;;;4.55;100.00;98677.23;223087;1268;138948;-84
2023/01/10 13:53:43;;;;;;;34.10;12.40;;;;;;;4.53;100.00;98684.59;223191;1263;138799;-86
2023/01/10 14:05:28;;;;;;;26.90;12.30;;;;;;;4.55;100.00;98697.83;223005;1266;138151;-85
2023/01/10 14:10:45;;;;;;;23.90;12.10;;;;;;;4.56;100.00;98707.44;224056;1272;138803;-83
2023/01/10 14:15:54;;;;;;;23.90;10.80;;;;;;;4.56;100.00;98715.35;222170;1272;138461;-83
2023/01/10 14:21:24;;;;;;;23.90;12.20;;;;;;;4.55;100.00;98719.48;223043;1272;138440;-81
2023/01/10 14:26:46;;;;;;;27.90;12.70;;;;;;;4.54;100.00;98720.95;223335;1272;138380;-84
2023/01/10 14:31:55;;;;;;;;;;;;;;;4.52;100.00;98729.89;222841;1272;22479;-83
2023/01/10 14:37:30;;;;;;;27.40;12.10;;;;;;;4.49;100.00;98740.59;223396;1273;22540;-84
2023/01/10 14:42:47;;;;;;;29.60;12.80;;;;;;;4.48;100.00;98743.16;223579;1272;138623;-84
2023/01/10 14:47:56;;;;;;;25.30;12.10;;;;;;;4.49;100.00;98747.38;223239;1272;138323;-81
2023/01/10 14:54:28;;;;;;;27.80;12.90;;;;;;;4.49;100.00;98755.23;223428;1272;138337;-84
2023/01/10 15:00:35;;;;;;;25.40;12.10;;;;;;;4.48;100.00;98767.83;223391;1272;138176;-84
2023/01/10 15:05:52;;;;;;;26.10;12.10;;;;;;;4.46;100.00;98777.27;223252;1278;22540;-81
2023/01/10 15:11:04;;;;;;;26.10;12.20;;;;;;;4.44;100.00;98776.44;222494;1280;22533;-83
2023/01/10 15:16:18;;;;;;;32.10;13.30;;;;;;;4.41;100.00;98793.01;222589;1280;22695;-81
2023/01/10 15:21:42;;;;;;;22.90;11.70;;;;;;;4.39;100.00;98791.98;221465;1280;23941;-82
2023/01/10 15:27:23;;;;;;;27.90;12.30;;;;;;;4.38;100.00;98794.23;222329;1280;22555;-82
2023/01/10 15:32:38;;;;;;;30.30;13.60;;;;;;;4.38;100.00;98803.15;222417;1280;22638;-80
2023/01/10 15:38:10;;;;;;;27.10;12.80;;;;;;;4.38;100.00;98805.54;221751;1269;22471;-81
2023/01/10 15:43:42;;;;;;;34.00;15.10;;;;;;;4.37;100.00;98811.53;221523;1262;24127;-80
2023/01/10 15:49:20;;;;;;;33.20;13.80;;;;;;;4.37;100.00;98805.33;221416;1279;25297;-81
2023/01/10 15:54:30;;;;;;;28.70;12.60;;;;;;;4.32;100.00;98807.48;222369;1279;22546;-82
2023/01/10 15:59:37;;;;;;;30.80;11.90;;;;;;;4.23;100.00;98813.42;222239;1280;25312;-81
2023/01/10 16:04:45;;;;;;;30.30;12.70;;;;;;;4.14;100.00;98817.48;221446;1278;23132;-80
2023/01/10 16:10:34;;;;;;;35.50;14.30;;;;;;;4.10;100.00;98825.50;221434;1278;22546;-81
2023/01/10 16:15:43;;;;;;;32.70;13.70;;;;;;;4.10;100.00;98831.07;221392;1279;22543;-81
2023/01/10 16:20:57;;;;;;;27.00;12.50;;;;;;;4.09;100.00;98833.61;221719;1272;22555;-81
2023/01/10 16:26:07;;;;;;;30.00;13.80;;;;;;;4.08;100.00;98836.45;221461;1280;23202;-80
2023/01/10 16:31:15;;;;;;;32.50;12.70;;;;;;;4.03;100.00;98837.27;221428;1280;22638;-80
2023/01/10 16:36:19;;;;;;;29.60;12.60;;;;;;;3.97;100.00;98849.38;221465;1278;24210;-81
2023/01/10 16:46:57;;;;;;;33.30;13.10;;;;;;;3.83;100.00;98871.82;221535;1280;25451;-80
2023/01/10 16:52:00;;;;;;;38.80;12.90;;;;;;;3.76;100.00;98878.44;221524;1280;22619;-81
2023/01/10 16:57:02;;;;;;;34.50;14.10;;;;;;;3.72;100.00;98882.77;222518;1280;22626;-80
2023/01/10 17:02:16;;;;;;;36.60;15.20;;;;;;;3.70;100.00;98885.13;221346;1280;24488;-80
2023/01/10 17:07:22;;;;;;;34.80;13.70;;;;;;;3.69;100.00;98882.88;221557;1279;22703;-79
2023/01/10 17:12:35;;;;;;;30.20;13.20;;;;;;;3.67;100.00;98900.65;221537;1278;22802;-81
2023/01/10 17:17:38;;;;;;;24.20;10.80;;;;;;;3.66;100.00;98908.06;222296;1278;22594;-81
2023/01/10 17:22:43;;;;;;;28.90;11.50;;;;;;;3.67;100.00;98910.52;222204;1280;25379;-81
2023/01/10 17:27:48;;;;;;;28.00;11.30;;;;;;;3.67;100.00;98926.77;221314;1280;22711;-79
2023/01/10 17:32:56;;;;;;;30.20;12.10;;;;;;;3.68;100.00;98934.27;221512;1278;22623;-81
2023/01/10 17:38:10;;;;;;;31.30;11.80;;;;;;;3.67;100.00;98943.89;221462;1279;22541;-80
2023/01/10 17:43:19;;;;;;;32.80;13.80;;;;;;;3.67;100.00;98949.83;222259;1279;25401;-80
2023/01/10 17:48:33;;;;;;;32.30;14.10;;;;;;;3.67;100.00;98953.05;221571;1278;25472;-80
2023/01/10 17:53:39;;;;;;;29.80;12.90;;;;;;;3.69;100.00;98957.95;221518;1280;23950;-81
2023/01/10 17:58:50;;;;;;;32.10;13.50;;;;;;;3.72;100.00;98962.54;221386;1280;22648;-80
2023/01/10 18:03:55;;;;;;;41.20;17.30;;;;;;;3.77;100.00;98958.85;221640;1280;22549;-80
2023/01/10 18:09:13;;;;;;;28.70;13.20;;;;;;;3.82;100.00;98965.14;221351;1280;25303;-80
2023/01/10 18:19:39;;;;;;;32.40;14.00;;;;;;;3.95;100.00;98981.11;221436;1278;22540;-80
2023/01/10 18:24:41;;;;;;;34.90;15.60;;;;;;;3.99;100.00;98983.02;221499;1278;22538;-81
2023/01/10 18:29:47;;;;;;;38.40;16.50;;;;;;;4.01;100.00;98992.38;222105;1278;22540;-80
2023/01/10 18:34:50;;;;;;;44.10;16.00;;;;;;;4.04;100.00;98992.39;221254;1278;22557;-80
2023/01/10 18:39:56;;;;;;;38.90;16.50;;;;;;;4.08;100.00;98992.55;221579;1277;22550;-80
2023/01/10 18:45:00;;;;;;;48.80;19.80;;;;;;;4.08;100.00;98987.94;221517;1278;22555;-80
2023/01/10 18:50:08;;;;;;;55.50;23.00;;;;;;;4.08;100.00;98986.77;222224;1278;22534;-80
2023/01/10 18:55:11;;;;;;;67.10;29.40;;;;;;;4.08;100.00;98994.73;221251;1280;22553;-80
2023/01/10 19:00:23;;;;;;;69.20;30.50;;;;;;;4.05;100.00;98990.95;222321;1260;23704;-79
2023/01/10 19:05:26;;;;;;;56.30;25.80;;;;;;;4.01;100.00;98996.83;221293;1278;22614;-80
2023/01/10 19:10:34;;;;;;;64.20;26.70;;;;;;;3.96;100.00;99010.16;222160;1276;22644;-80
2023/01/10 19:16:14;;;;;;;73.50;31.60;;;;;;;3.91;100.00;99017.40;221492;1269;22546;-80
2023/01/10 19:21:29;;;;;;;73.00;29.90;;;;;;;3.89;100.00;99016.88;222366;1280;25421;-81
2023/01/10 19:26:38;;;;;;;82.00;33.40;;;;;;;3.89;100.00;99013.54;222442;1280;22620;-80
2023/01/10 19:31:48;;;;;;;77.40;33.60;;;;;;;3.93;100.00;99015.11;221492;1280;24871;-80
2023/01/10 19:36:53;;;;;;;69.70;29.90;;;;;;;3.99;100.00;99016.63;222455;1278;25421;-80
2023/01/10 19:42:16;;;;;;;;;;;;;;;;;;;;;
2023/01/10 19:47:21;;;;;;;72.80;28.70;;;;;;;4.02;100.00;99024.73;221487;1280;24194;-79
2023/01/10 19:52:39;;;;;;;72.50;29.70;;;;;;;4.05;100.00;99025.00;221499;1279;24058;-80
2023/01/10 19:57:41;;;;;;;58.20;23.70;;;;;;;4.09;100.00;99024.75;221608;1276;22565;-79
2023/01/10 20:02:44;;;;;;;63.00;24.70;;;;;;;4.12;100.00;99024.55;221645;1279;24285;-80
2023/01/10 20:07:50;;;;;;;57.50;22.50;;;;;;;4.14;100.00;99024.89;221561;1273;160855;-80
2023/01/10 20:12:52;;;;;;;57.50;23.70;;;;;;;4.11;100.00;99036.04;221535;1279;25383;-80
2023/01/10 20:17:54;;;;;;;54.30;22.40;;;;;;;4.09;100.00;99036.33;221474;1280;25331;-80
2023/01/10 20:23:03;;;;;;;52.60;20.80;;;;;;;4.09;100.00;99032.17;222423;1278;22672;-79
2023/01/10 20:28:06;;;;;;;51.10;20.40;;;;;;;4.08;100.00;99033.11;221288;1280;22655;-79
2023/01/10 20:33:20;;;;;;;46.20;18.10;;;;;;;4.07;100.00;99035.81;221174;1280;24050;-79
2023/01/10 20:38:31;;;;;;;48.80;18.00;;;;;;;4.05;100.00;99033.98;221495;1276;22789;-79
2023/01/10 20:43:34;;;;;;;45.70;17.50;;;;;;;4.02;100.00;99036.24;221555;1280;22869;-80
2023/01/10 20:48:41;;;;;;;38.60;14.70;;;;;;;3.97;100.00;99038.85;221458;1280;22536;-80
2023/01/10 20:53:44;;;;;;;46.30;19.10;;;;;;;3.91;100.00;99039.34;221253;1280;22720;-80
2023/01/10 20:58:47;;;;;;;53.00;19.50;;;;;;;3.87;100.00;99038.48;222038;1280;23237;-81
2023/01/10 21:03:50;;;;;;;53.20;20.60;;;;;;;3.84;100.00;99040.70;222219;1280;22563;-80
2023/01/10 21:08:55;;;;;;;46.20;18.40;;;;;;;3.83;100.00;99040.53;221604;1280;25249;-80
2023/01/10 21:13:59;;;;;;;55.70;19.80;;;;;;;3.83;100.00;99051.49;222090;1280;24298;-80
2023/01/10 21:19:12;;;;;;;45.90;17.00;;;;;;;3.82;100.00;99052.73;222244;1280;23802;-79
2023/01/10 21:24:14;;;;;;;45.00;17.10;;;;;;;3.73;100.00;99057.98;221123;1280;25307;-79
2023/01/10 21:29:22;;;;;;;37.90;16.40;;;;;;;3.61;100.00;99068.03;221216;1280;25249;-80
2023/01/10 21:34:28;;;;;;;43.40;17.20;;;;;;;3.49;100.00;99065.58;222190;1280;23095;-80
2023/01/10 21:39:30;;;;;;;43.60;17.70;;;;;;;3.41;100.00;99070.17;221458;1276;25320;-79
2023/01/10 21:44:34;;;;;;;44.60;17.40;;;;;;;3.36;100.00;99076.29;221466;1280;22589;-80
2023/01/10 21:49:37;;;;;;;47.70;18.00;;;;;;;3.37;100.00;99075.46;221281;1278;26083;-79
2023/01/10 21:54:48;;;;;;;;;;;;;;;3.40;100.00;99083.09;221433;1279;22554;-80
2023/01/10 21:59:51;;;;;;;52.20;17.30;;;;;;;3.43;100.00;99084.80;221587;1280;25416;-79
2023/01/10 22:04:55;;;;;;;54.40;21.40;;;;;;;3.44;100.00;99085.71;221582;1280;22695;-79
2023/01/10 22:10:06;;;;;;;49.80;19.50;;;;;;;3.49;100.00;99085.17;221372;1280;22540;-80
2023/01/10 22:15:21;;;;;;;72.60;27.60;;;;;;;3.50;100.00;99074.18;221511;1279;24108;-80
2023/01/10 22:20:33;;;;;;;63.90;25.70;;;;;;;3.50;100.00;99079.05;221284;1280;25607;-79
2023/01/10 22:25:38;;;;;;;66.20;25.00;;;;;;;3.49;100.00;99078.08;222306;1280;22585;-79
2023/01/10 22:30:41;;;;;;;65.70;25.60;;;;;;;3.50;100.00;99073.17;221149;1280;24781;-79
2023/01/10 22:36:05;;;;;;;67.30;25.50;;;;;;;3.49;100.00;99074.48;221543;1280;22558;-79
2023/01/10 22:41:26;;;;;;;63.90;24.00;;;;;;;3.49;100.00;99069.93;221578;1264;22533;-80
2023/01/10 22:46:29;;;;;;;73.10;25.00;;;;;;;3.51;100.00;99064.98;221310;1280;25431;-78
2023/01/10 22:51:44;;;;;;;65.60;24.30;;;;;;;3.52;100.00;99069.45;221316;1279;25323;-79
2023/01/10 22:56:57;;;;;;;65.70;25.00;;;;;;;3.53;100.00;99075.72;222158;1280;22621;-79
2023/01/10 23:02:00;;;;;;;56.70;22.60;;;;;;;3.55;100.00;99073.65;221380;1280;23066;-80
2023/01/10 23:07:03;;;;;;;72.00;27.70;;;;;;;3.51;100.00;99080.98;221420;1277;24246;-79
2023/01/10 23:12:07;;;;;;;78.50;30.60;;;;;;;3.48;100.00;99085.80;221259;1279;22546;-80
2023/01/10 23:17:15;;;;;;;84.20;30.90;;;;;;;3.52;100.00;99084.34;221401;1280;22548;-79
2023/01/10 23:22:31;;;;;;;72.90;27.30;;;;;;;3.54;100.00;99079.45;221513;1279;24266;-79
2023/01/10 23:27:39;;;;;;;66.10;24.60;;;;;;;3.54;100.00;99077.50;221264;1280;25379;-79
2023/01/10 23:32:42;;;;;;;62.20;22.50;;;;;;;3.53;100.00;99074.05;221405;1280;22606;-80
2023/01/10 23:37:51;;;;;;;65.60;23.40;;;;;;;3.52;100.00;99073.74;221379;1280;23402;-78
2023/01/10 23:43:00;;;;;;;67.00;23.80;;;;;;;3.48;100.00;99069.95;221494;1276;24292;-79
2023/01/10 23:48:21;;;;;;;57.30;19.80;;;;;;;3.45;100.00;99066.67;221105;1269;24296;-79
2023/01/10 23:53:44;;;;;;;42.50;16.40;;;;;;;3.42;100.00;99067.67;221446;1280;25250;-79
2023/01/10 23:59:08;;;;;;;51.60;18.90;;;;;;;3.39;100.00;99070.36;222341;1266;22651;-79
